Time;durP1;ratioP1;P1;durP2;ratioP2;P2;SDS_P1;SDS_P2;PMS_P1;PMS_P2;Temp;Humidity;BMP_temperature;BMP_pressure;BME280_temperature;BME280_humidity;BME280_pressure;Samples;Min_cycle;Max_cycle;Signal;HPM_P1;HPM_P2
2023/07/17 00:00:36;;;;;;;;;4.00;4.00;;;;;21.56;56.39;101032.78;4856869;29;45425;-86
2023/07/17 00:03:04;;;;;;;;;6.33;4.67;;;;;21.60;56.62;101036.31;4856377;29;45471;-86
2023/07/17 00:05:29;;;;;;;;;4.00;4.00;;;;;21.50;56.22;101029.34;4871680;29;45273;-86
2023/07/17 00:07:54;;;;;;;;;4.00;4.00;;;;;21.43;56.78;101020.53;4853427;29;46632;-86
2023/07/17 00:10:20;;;;;;;;;2.00;2.00;;;;;21.48;56.33;101031.22;4855235;29;45771;-86
2023/07/17 00:12:48;;;;;;;;;5.00;3.00;;;;;21.20;55.82;100987.72;4870701;29;44768;-86
2023/07/17 00:15:13;;;;;;;;;2.67;2.33;;;;;21.40;55.95;101028.69;4873343;29;45391;-86
2023/07/17 00:17:39;;;;;;;;;3.00;3.00;;;;;21.36;55.75;101027.84;4872107;29;45436;-86
2023/07/17 00:20:11;;;;;;;;;3.00;3.00;;;;;21.37;56.09;101029.66;4856131;29;45274;-86
2023/07/17 00:22:36;;;;;;;;;3.67;2.00;;;;;21.31;55.92;101028.91;4855227;29;45763;-85
2023/07/17 00:25:02;;;;;;;;;2.00;2.00;;;;;21.25;56.17;101029.97;4871571;29;45418;-86
2023/07/17 00:27:27;;;;;;;;;3.00;3.00;;;;;21.18;56.18;101017.53;4852479;29;46939;-86
2023/07/17 00:29:53;;;;;;;;;3.33;2.00;;;;;21.16;56.21;101017.56;4854000;29;45398;-85
2023/07/17 00:32:21;;;;;;;;;6.00;3.00;;;;;21.27;55.80;101022.72;4853587;29;45289;-85
2023/07/17 00:34:47;;;;;;;;;3.67;3.00;;;;;21.16;55.63;101020.25;4870218;29;45392;-86
2023/07/17 00:37:12;;;;;;;;;2.00;2.00;;;;;21.18;55.88;101026.50;4872674;29;45595;-85
2023/07/17 00:39:38;;;;;;;;;1.33;1.33;;;;;21.14;55.69;101022.09;4872545;29;45415;-85
2023/07/17 00:42:03;;;;;;;;;2.00;2.00;;;;;21.15;55.47;101025.72;4872668;28;44810;-86
2023/07/17 00:44:35;;;;;;;;;2.00;2.00;;;;;21.16;55.58;101024.78;4871684;29;45732;-85
2023/07/17 00:47:02;;;;;;;;;1.00;1.00;;;;;21.12;55.70;101029.38;4872734;28;45513;-85
2023/07/17 00:49:29;;;;;;;;;2.00;2.00;;;;;21.06;55.44;101028.66;4854822;28;45413;-86
2023/07/17 00:51:57;;;;;;;;;2.33;2.33;;;;;21.06;55.61;101028.66;4871491;29;44758;-86
2023/07/17 00:54:23;;;;;;;;;3.00;3.00;;;;;20.95;55.32;101031.63;4853423;29;45334;-86
2023/07/17 00:56:49;;;;;;;;;2.67;2.67;;;;;20.98;55.29;101037.81;4856856;29;47251;-86
2023/07/17 00:59:17;;;;;;;;;3.00;3.00;;;;;21.01;55.39;101041.41;4873622;29;45476;-86
2023/07/17 01:01:43;;;;;;;;;2.33;2.33;;;;;20.92;55.34;101039.78;4858301;29;45476;-86
2023/07/17 01:04:11;;;;;;;;;3.00;2.00;;;;;21.04;55.27;101049.44;4859148;29;45353;-85
2023/07/17 01:06:38;;;;;;;;;4.33;2.00;;;;;20.83;54.95;101027.41;4874925;28;46412;-86
2023/07/17 01:09:08;;;;;;;;;2.00;2.00;;;;;20.90;55.23;101044.34;4860862;29;45305;-86
2023/07/17 01:11:34;;;;;;;;;2.67;2.67;;;;;20.83;55.19;101049.03;4859458;29;45361;-86
2023/07/17 01:14:00;;;;;;;;;3.00;3.00;;;;;20.81;55.20;101045.47;4875357;28;45777;-86
2023/07/17 01:16:25;;;;;;;;;1.67;1.67;;;;;20.78;55.62;101045.53;4858299;29;46982;-86
2023/07/17 01:18:51;;;;;;;;;3.33;3.33;;;;;20.81;55.29;101052.69;4857726;29;45313;-86
2023/07/17 01:21:20;;;;;;;;;2.33;1.67;;;;;20.83;55.44;101050.84;4861120;29;44711;-86
2023/07/17 01:23:45;;;;;;;;;2.33;2.33;;;;;20.84;54.93;101056.19;4857505;29;45756;-86
2023/07/17 01:26:12;;;;;;;;;1.33;1.33;;;;;20.87;55.39;101055.25;4873948;29;46333;-86
2023/07/17 01:28:38;;;;;;;;;3.00;3.00;;;;;20.80;55.25;101050.91;4857661;29;45414;-86
2023/07/17 01:31:03;;;;;;;;;3.67;3.67;;;;;20.74;55.28;101054.63;4873662;29;45486;-86
2023/07/17 01:33:37;;;;;;;;;2.33;1.33;;;;;20.81;55.23;101044.59;4857266;29;44895;-86
2023/07/17 01:36:04;;;;;;;;;4.00;4.00;;;;;20.71;55.65;101055.59;4875461;28;45491;-86
2023/07/17 01:38:30;;;;;;;;;5.00;4.00;;;;;20.65;56.01;101050.34;4859776;28;45886;-86
2023/07/17 01:40:56;;;;;;;;;3.00;3.00;;;;;20.69;55.87;101051.16;4875731;29;45288;-86
2023/07/17 01:43:28;;;;;;;;;3.00;3.00;;;;;20.65;55.68;101057.56;4876126;28;44940;-86
2023/07/17 01:45:54;;;;;;;;;1.67;1.67;;;;;20.59;55.93;101045.06;4859618;29;45429;-86
2023/07/17 01:48:19;;;;;;;;;2.33;2.33;;;;;20.64;56.00;101055.75;4857361;29;45464;-86
2023/07/17 01:50:45;;;;;;;;;2.00;2.00;;;;;20.52;55.94;101040.69;4857546;29;45410;-86
2023/07/17 01:53:11;;;;;;;;;3.00;3.00;;;;;20.57;56.07;101063.97;4873614;29;45535;-86
2023/07/17 01:55:37;;;;;;;;;3.00;2.00;;;;;20.57;56.09;101066.69;4859716;29;47208;-86
2023/07/17 01:58:02;;;;;;;;;2.33;2.33;;;;;20.53;56.52;101062.28;4859003;29;45336;-85
2023/07/17 02:00:28;;;;;;;;;5.33;5.33;;;;;20.37;56.19;101034.69;4857120;29;45358;-86
2023/07/17 02:02:53;;;;;;;;;2.33;2.33;;;;;20.37;56.46;101034.69;4859267;29;45413;-86
2023/07/17 02:05:20;;;;;;;;;3.00;3.00;;;;;20.46;56.46;101049.84;4873396;29;45572;-86
2023/07/17 02:07:46;;;;;;;;;3.00;3.00;;;;;20.48;56.52;101061.50;4873359;28;45425;-87
2023/07/17 02:10:14;;;;;;;;;4.33;3.67;;;;;20.48;56.66;101052.47;4874498;28;45708;-86
2023/07/17 02:12:40;;;;;;;;;3.33;2.00;;;;;20.13;56.63;101013.63;4857909;29;45354;-87
2023/07/17 02:15:06;;;;;;;;;4.00;4.00;;;;;20.37;56.64;101058.13;4857241;29;45558;-86
2023/07/17 02:17:32;;;;;;;;;3.67;2.67;;;;;20.32;57.03;101063.63;4858094;29;45372;-87
2023/07/17 02:19:58;;;;;;;;;2.33;2.33;;;;;20.17;56.98;101037.81;4857608;29;45436;-87
2023/07/17 02:22:26;;;;;;;;;3.33;3.33;;;;;20.19;57.14;101057.59;4859268;28;45395;-87
2023/07/17 02:24:51;;;;;;;;;2.00;2.00;;;;;20.23;57.10;101052.13;4875462;28;45539;-86
2023/07/17 02:27:16;;;;;;;;;3.00;3.00;;;;;20.07;57.03;101032.66;4873139;29;45472;-87
2023/07/17 02:29:42;;;;;;;;;3.00;3.00;;;;;20.15;57.03;101042.38;4856303;29;45514;-87
2023/07/17 02:32:07;;;;;;;;;2.00;2.00;;;;;20.31;57.07;101066.34;4854722;29;45391;-87
2023/07/17 02:34:33;;;;;;;;;2.33;2.33;;;;;20.29;57.24;101069.09;4853343;29;46660;-86
2023/07/17 02:36:58;;;;;;;;;4.33;2.67;;;;;20.30;57.10;101073.59;4855541;29;45414;-87
2023/07/17 02:39:27;;;;;;;;;3.00;3.00;;;;;20.21;57.34;101060.25;4856215;29;45374;-86
2023/07/17 02:41:53;;;;;;;;;4.00;4.00;;;;;20.26;57.48;101065.56;4854940;29;45377;-86
2023/07/17 02:44:18;;;;;;;;;3.00;3.00;;;;;20.15;57.62;101061.25;4856638;29;47145;-86
2023/07/17 02:46:44;;;;;;;;;5.67;3.33;;;;;20.09;57.31;101047.88;4872816;29;45316;-86
2023/07/17 02:49:11;;;;;;;;;4.00;4.00;;;;;20.11;57.44;101059.56;4856759;29;45304;-86
2023/07/17 02:51:37;;;;;;;;;5.00;5.00;;;;;20.12;57.46;101066.75;4856813;29;45631;-86
2023/07/17 02:54:03;;;;;;;;;2.67;2.67;;;;;20.18;57.38;101090.94;4855890;29;46723;-87
2023/07/17 02:56:28;;;;;;;;;3.67;3.00;;;;;19.98;57.23;101052.63;4872181;29;45403;-87
2023/07/17 02:58:54;;;;;;;;;4.00;4.00;;;;;19.97;57.03;101045.44;4856324;29;45463;-87
2023/07/17 03:01:20;;;;;;;;;4.33;3.00;;;;;19.87;56.88;101041.16;4855048;29;45927;-86
2023/07/17 03:03:46;;;;;;;;;4.00;4.00;;;;;20.09;57.49;101085.69;4871525;29;46878;-86
2023/07/17 03:06:12;;;;;;;;;2.33;2.00;;;;;19.95;57.33;101064.34;4873804;28;45398;-86
2023/07/17 03:08:40;;;;;;;;;2.33;1.67;;;;;20.11;57.25;101080.28;4857479;28;45457;-86
2023/07/17 03:11:05;;;;;;;;;2.67;2.67;;;;;19.97;57.97;101078.72;4857325;28;45454;-86
2023/07/17 03:13:31;;;;;;;;;2.00;2.00;;;;;19.86;57.58;101063.69;4856128;28;45496;-86
2023/07/17 03:16:00;;;;;;;;;1.67;1.67;;;;;19.89;57.64;101055.50;4855290;28;45387;-86
2023/07/17 03:18:25;;;;;;;;;3.00;2.00;;;;;19.86;57.66;101071.78;4869951;29;44763;-86
2023/07/17 03:20:52;;;;;;;;;2.00;2.00;;;;;19.88;57.99;101081.63;4855866;29;45440;-86
2023/07/17 03:23:17;;;;;;;;;1.00;1.00;;;;;19.87;57.91;101089.72;4872505;29;45442;-86
2023/07/17 03:25:43;;;;;;;;;2.00;2.00;;;;;19.84;57.91;101079.00;4873078;28;44755;-86
2023/07/17 03:28:09;;;;;;;;;1.00;1.00;;;;;19.79;57.56;101089.88;4855906;29;46812;-86
2023/07/17 03:30:34;;;;;;;;;2.00;2.00;;;;;19.71;57.34;101084.63;4874682;28;45162;-86
2023/07/17 03:33:00;;;;;;;;;2.00;2.00;;;;;19.76;57.61;101098.91;4856566;29;48107;-85
2023/07/17 03:35:25;;;;;;;;;1.00;1.00;;;;;19.65;57.58;101084.69;4859292;29;45689;-84
2023/07/17 03:37:51;;;;;;;;;2.00;2.00;;;;;19.66;57.60;101080.22;4858053;29;44975;-86
2023/07/17 03:40:16;;;;;;;;;1.00;1.00;;;;;19.52;57.54;101053.47;4871965;29;45447;-86
2023/07/17 03:42:42;;;;;;;;;3.00;2.00;;;;;19.72;57.39;101097.19;4856176;29;47397;-87
2023/07/17 03:45:08;;;;;;;;;3.33;2.00;;;;;19.66;57.59;101091.00;4872962;29;45355;-86
2023/07/17 03:47:33;;;;;;;;;2.00;2.00;;;;;19.76;57.27;101108.84;4855408;29;45433;-86
2023/07/17 03:49:58;;;;;;;;;1.00;1.00;;;;;19.77;57.30;101105.19;4857120;29;45572;-87
2023/07/17 03:52:24;;;;;;;;;2.33;2.00;;;;;19.68;57.42;101099.97;4871684;29;45437;-86
2023/07/17 03:54:49;;;;;;;;;1.33;1.33;;;;;19.57;57.17;101081.25;4854992;29;45621;-86
2023/07/17 04:00:37;;;;;;;;;3.67;3.67;;;;;19.66;56.88;101102.66;4871433;29;45356;-87
2023/07/17 04:03:02;;;;;;;;;3.00;1.00;;;;;19.66;57.04;101109.88;4872646;29;45596;-86
2023/07/17 04:05:28;;;;;;;;;1.33;1.33;;;;;19.62;57.29;101111.75;4854557;29;45691;-86
2023/07/17 04:07:53;;;;;;;;;3.00;3.00;;;;;19.62;57.44;101109.03;4854824;29;45559;-87
2023/07/17 04:10:18;;;;;;;;;1.00;1.00;;;;;19.60;57.61;101113.56;4871577;29;45416;-86
2023/07/17 04:12:44;;;;;;;;;1.00;1.00;;;;;19.52;57.85;101115.50;4872456;29;45402;-87
2023/07/17 04:15:18;;;;;;;;;2.00;1.00;;;;;19.57;57.64;101110.91;4854239;29;45813;-86
2023/07/17 04:17:46;;;;;;;;;2.00;2.00;;;;;19.53;57.98;101115.50;4869884;29;45384;-86
2023/07/17 04:20:11;;;;;;;;;2.00;2.00;;;;;19.47;57.88;101121.00;4869333;29;45410;-85
2023/07/17 04:22:37;;;;;;;;;3.00;3.00;;;;;19.53;58.04;101118.19;4870453;29;45458;-86
2023/07/17 04:25:03;;;;;;;;;1.00;1.00;;;;;19.56;57.65;101119.94;4871258;29;45381;-86
2023/07/17 04:27:31;;;;;;;;;2.00;2.00;;;;;19.53;57.68;101114.59;4871048;29;45398;-86
2023/07/17 04:29:57;;;;;;;;;1.67;1.67;;;;;19.58;57.69;101123.50;4874556;29;45184;-85
2023/07/17 04:32:22;;;;;;;;;3.67;3.00;;;;;19.48;57.70;101106.56;4858031;29;47876;-86
2023/07/17 04:34:48;;;;;;;;;3.33;2.67;;;;;19.53;58.07;101115.50;4859183;29;45394;-87
2023/07/17 04:37:14;;;;;;;;;2.00;2.00;;;;;19.60;57.68;101118.97;4876244;29;45546;-85
2023/07/17 04:39:39;;;;;;;;;1.67;1.00;;;;;19.64;57.96;101120.69;4876985;29;45692;-85
2023/07/17 04:42:04;;;;;;;;;3.00;2.00;;;;;19.65;57.75;101116.19;4877339;29;45591;-86
2023/07/17 04:44:30;;;;;;;;;1.67;0.67;;;;;19.72;57.71;101126.00;4860549;29;45200;-85
2023/07/17 04:46:55;;;;;;;;;1.00;1.00;;;;;19.77;57.65;101133.09;4861275;29;44793;-86
2023/07/17 04:49:21;;;;;;;;;2.00;2.00;;;;;19.83;57.44;101137.47;4860205;29;45539;-86
2023/07/17 04:51:47;;;;;;;;;1.00;1.00;;;;;19.79;57.88;101124.94;4876111;28;45322;-87
2023/07/17 04:54:13;;;;;;;;;3.00;1.00;;;;;19.80;58.07;101139.38;4874571;29;45406;-87
2023/07/17 04:56:41;;;;;;;;;1.00;1.00;;;;;19.92;57.75;101133.75;4874972;28;45408;-86
2023/07/17 04:59:06;;;;;;;;;2.00;1.00;;;;;19.96;57.60;101130.06;4876060;28;45388;-86
2023/07/17 05:01:32;;;;;;;;;3.00;1.00;;;;;20.14;57.29;101142.34;4856483;29;49450;-86
2023/07/17 05:03:57;;;;;;;;;2.00;1.33;;;;;20.25;57.15;101142.13;4870938;29;45375;-87
2023/07/17 05:06:22;;;;;;;;;2.00;2.00;;;;;20.34;56.57;101136.50;4856584;29;44827;-87
2023/07/17 05:08:48;;;;;;;;;3.00;2.00;;;;;20.45;56.93;101139.91;4873647;29;45723;-87
2023/07/17 05:11:13;;;;;;;;;0.00;0.00;;;;;20.55;56.30;101146.88;4874873;28;45333;-86
2023/07/17 05:13:38;;;;;;;;;1.67;1.67;;;;;20.62;56.28;101152.19;4858308;29;45439;-87
2023/07/17 05:16:05;;;;;;;;;2.33;1.33;;;;;20.70;56.05;101147.53;4875520;29;45358;-86
2023/07/17 05:18:30;;;;;;;;;3.00;2.00;;;;;20.77;55.90;101141.06;4875240;28;45467;-86
2023/07/17 05:20:55;;;;;;;;;1.67;1.67;;;;;20.89;55.67;101156.16;4857878;29;48247;-86
2023/07/17 05:23:21;;;;;;;;;2.00;2.00;;;;;20.88;55.35;101136.31;4857882;29;45304;-87
2023/07/17 05:25:55;;;;;;;;;2.00;2.00;;;;;21.06;55.51;101153.94;4874057;28;45019;-87
2023/07/17 05:28:20;;;;;;;;;2.33;2.33;;;;;21.07;55.58;101154.84;4873192;29;45595;-87
2023/07/17 05:30:49;;;;;;;;;2.00;2.00;;;;;21.13;55.07;101141.19;4857864;29;47211;-86
2023/07/17 05:33:14;;;;;;;;;2.00;2.00;;;;;21.21;54.76;101144.59;4873498;29;45187;-86
2023/07/17 05:35:43;;;;;;;;;2.00;2.00;;;;;21.34;54.81;101150.59;4874165;29;44689;-85
2023/07/17 05:38:09;;;;;;;;;1.33;1.33;;;;;21.42;54.41;101153.09;4876065;29;45449;-85
2023/07/17 05:40:36;;;;;;;;;0.00;0.00;;;;;21.53;54.79;101154.66;4859144;29;47693;-85
2023/07/17 05:43:02;;;;;;;;;2.33;1.33;;;;;21.60;53.98;101155.41;4873239;29;45392;-85
2023/07/17 05:45:27;;;;;;;;;1.67;1.67;;;;;21.70;53.53;101166.88;4858704;29;45358;-85
2023/07/17 05:47:53;;;;;;;;;1.00;1.00;;;;;21.75;53.51;101155.03;4858927;29;45259;-87
2023/07/17 05:50:19;;;;;;;;;1.00;1.00;;;;;21.90;53.37;101164.53;4874505;29;45292;-86
2023/07/17 05:56:54;;;;;;;;;1.67;1.67;;;;;21.94;52.68;101130.16;4878385;29;44735;-87
2023/07/17 05:59:51;;;;;;;;;1.00;1.00;;;;;22.18;52.70;101170.13;4765256;29;45488;-86
2023/07/17 06:02:20;;;;;;;;;1.33;1.33;;;;;21.97;52.77;101133.66;4760823;29;45570;-86
2023/07/17 06:04:46;;;;;;;;;2.00;2.00;;;;;22.16;52.67;101171.09;4763525;29;45440;-87
2023/07/17 06:07:13;;;;;;;;;2.00;2.00;;;;;22.23;52.62;101188.06;4749524;29;45299;-87
2023/07/17 06:09:40;;;;;;;;;2.00;2.00;;;;;22.35;52.30;101180.50;4764315;29;45545;-86
2023/07/17 06:12:08;;;;;;;;;2.00;1.00;;;;;22.24;52.17;101158.25;4749003;29;45578;-86
2023/07/17 06:14:34;;;;;;;;;2.33;2.33;;;;;22.27;52.25;101160.00;4761975;29;45507;-85
2023/07/17 06:16:59;;;;;;;;;1.00;1.00;;;;;22.56;51.94;101198.00;4748347;29;45487;-86
2023/07/17 06:19:24;;;;;;;;;3.00;3.00;;;;;22.64;51.35;101194.16;4762515;29;45254;-86
2023/07/17 06:21:51;;;;;;;;;2.33;2.33;;;;;22.79;51.49;101207.28;4748869;29;47182;-85
2023/07/17 06:24:16;;;;;;;;;4.00;3.00;;;;;22.76;51.48;101197.44;4762572;29;45501;-86
2023/07/17 06:26:42;;;;;;;;;1.00;1.00;;;;;22.84;51.27;101202.59;4762698;29;45565;-83
2023/07/17 06:29:10;;;;;;;;;3.67;3.67;;;;;23.02;50.84;101205.75;4770372;29;45554;-83
2023/07/17 06:31:36;;;;;;;;;1.00;1.00;;;;;23.02;50.77;101203.91;4809868;29;45489;-82
2023/07/17 06:34:02;;;;;;;;;3.33;2.67;;;;;23.10;50.86;101204.56;4797386;29;45569;-84
2023/07/17 06:36:28;;;;;;;;;2.00;2.00;;;;;23.17;50.65;101202.59;4847286;29;45468;-85
2023/07/17 06:38:53;;;;;;;;;2.67;2.67;;;;;23.27;50.45;101198.66;4870529;29;45389;-82
2023/07/17 06:41:19;;;;;;;;;1.00;1.00;;;;;23.39;50.12;101200.09;4886988;29;45440;-83
2023/07/17 06:43:44;;;;;;;;;6.33;5.67;;;;;23.48;50.10;101198.88;4874296;29;45864;-82
2023/07/17 06:46:10;;;;;;;;;2.00;2.00;;;;;23.47;50.14;101189.88;4875574;28;45359;-84
2023/07/17 06:48:36;;;;;;;;;4.00;2.00;;;;;23.60;49.94;101200.31;4883261;29;45490;-83
2023/07/17 06:51:04;;;;;;;;;2.00;2.00;;;;;23.54;49.06;101202.28;4857552;29;46720;-84
2023/07/17 06:53:36;;;;;;;;;4.00;2.00;;;;;23.32;49.51;101196.66;4873007;29;45477;-83
2023/07/17 06:56:01;;;;;;;;;1.00;1.00;;;;;23.15;49.53;101215.31;4875077;29;44867;-83
2023/07/17 06:58:27;;;;;;;;;3.00;2.00;;;;;23.13;50.31;101218.06;4884589;29;45365;-83
2023/07/17 07:00:57;;;;;;;;;2.00;2.00;;;;;23.32;49.97;101218.38;4892642;29;47879;-83
2023/07/17 07:03:23;;;;;;;;;2.33;2.33;;;;;23.41;49.99;101221.72;4869144;29;45377;-84
2023/07/17 07:05:59;;;;;;;;;3.00;3.00;;;;;23.56;49.83;101218.53;4875767;29;45359;-82
2023/07/17 07:08:32;;;;;;;;;3.67;2.67;;;;;23.49;49.54;101219.66;4857313;29;45534;-85
2023/07/17 07:14:46;;;;;;;;;3.00;2.00;;;;;23.86;49.22;101222.09;4874418;29;45526;-84
2023/07/17 07:18:04;;;;;;;;;2.00;2.00;;;;;23.74;49.00;101201.63;4859279;29;45507;-86
2023/07/17 07:24:31;;;;;;;;;;;;;;;;;;;;;
2023/07/17 07:29:57;;;;;;;;;2.00;2.00;;;;;24.16;48.73;101231.03;5541875;23;46862;-84
2023/07/17 07:35:48;;;;;;;;;4.00;3.00;;;;;24.29;47.77;101211.56;4798285;29;45361;-83
2023/07/17 07:38:36;;;;;;;;;;;;;;;;;;;;;
2023/07/17 07:41:02;;;;;;;;;4.00;3.00;;;;;24.36;47.63;101224.91;4805674;29;67636;-82
2023/07/17 07:43:28;;;;;;;;;4.67;3.33;;;;;24.42;46.70;101220.16;4812521;29;44809;-82
2023/07/17 07:46:12;;;;;;;;;;;;;;;;;;;;;
2023/07/17 07:48:38;;;;;;;;;4.00;4.00;;;;;24.46;46.41;101213.66;4806576;29;72416;-84
2023/07/17 07:51:27;;;;;;;;;3.00;3.00;;;;;24.53;45.92;101199.84;4816846;29;44971;-85
2023/07/17 07:53:53;;;;;;;;;5.00;3.33;;;;;24.46;45.81;101228.19;4769597;29;45011;-84
2023/07/17 07:56:21;;;;;;;;;3.00;1.67;;;;;24.42;45.56;101222.88;4779337;29;45050;-84
2023/07/17 07:59:21;;;;;;;;;5.67;4.00;;;;;24.58;45.87;101247.72;4781152;29;45325;-84
2023/07/17 08:01:50;;;;;;;;;2.00;2.00;;;;;24.59;45.61;101228.63;4758414;29;45456;-85
2023/07/17 08:04:16;;;;;;;;;5.00;3.00;;;;;24.69;45.64;101234.63;4779142;29;45760;-85
2023/07/17 08:06:41;;;;;;;;;6.00;6.00;;;;;24.83;45.68;101254.06;4768754;29;46837;-85
2023/07/17 08:09:07;;;;;;;;;2.00;2.00;;;;;24.96;45.18;101246.31;4760474;29;45422;-85
2023/07/17 08:12:22;;;;;;;;;2.33;2.33;;;;;25.13;44.35;101251.13;4789860;29;45288;-85
2023/07/17 08:14:53;;;;;;;;;2.00;2.00;;;;;25.00;43.89;101256.13;4781555;29;44947;-84
2023/07/17 08:17:18;;;;;;;;;2.67;2.67;;;;;25.03;44.47;101255.16;4797460;29;46869;-85
2023/07/17 08:19:44;;;;;;;;;5.00;5.00;;;;;25.15;44.31;101250.09;4812439;29;45518;-83
2023/07/17 08:22:09;;;;;;;;;5.33;5.33;;;;;25.31;43.92;101255.88;4785741;29;44928;-84
2023/07/17 08:24:50;;;;;;;;;3.67;2.67;;;;;25.34;43.11;101255.75;4792523;29;45407;-84
2023/07/17 08:27:15;;;;;;;;;3.67;3.00;;;;;25.09;43.19;101260.34;4797237;29;45661;-84
2023/07/17 08:29:41;;;;;;;;;3.00;3.00;;;;;25.15;43.66;101265.56;4800135;29;44881;-85
2023/07/17 08:32:10;;;;;;;;;4.33;2.67;;;;;25.29;43.20;101255.06;4868580;28;45758;-84
2023/07/17 08:34:39;;;;;;;;;2.67;2.67;;;;;25.32;43.67;101259.47;4849125;29;45450;-85
2023/07/17 08:37:08;;;;;;;;;4.33;3.00;;;;;25.61;42.91;101258.34;4856648;29;47957;-84
2023/07/17 08:39:34;;;;;;;;;4.00;4.00;;;;;25.69;42.52;101266.19;4872638;28;45258;-83
2023/07/17 08:41:59;;;;;;;;;3.00;3.00;;;;;25.73;41.51;101248.75;4857439;29;45479;-84
2023/07/17 08:45:06;;;;;;;;;;;;;;;;;;;;;
2023/07/17 08:47:37;;;;;;;;;4.67;2.00;;;;;25.84;42.62;101254.66;4815867;29;75377;-83
2023/07/17 08:50:04;;;;;;;;;5.33;4.00;;;;;26.06;42.12;101259.25;4793266;29;45417;-83
2023/07/17 08:52:32;;;;;;;;;2.00;2.00;;;;;26.30;41.74;101241.84;4800781;29;44861;-83
2023/07/17 08:55:04;;;;;;;;;4.00;3.33;;;;;26.64;41.38;101250.38;4799685;29;44893;-84
2023/07/17 08:57:44;;;;;;;;;4.00;3.33;;;;;26.94;41.23;101251.72;4818200;29;47059;-85
2023/07/17 09:00:15;;;;;;;;;2.33;2.33;;;;;27.10;40.40;101237.34;4802887;29;45442;-84
2023/07/17 09:02:44;;;;;;;;;2.33;2.33;;;;;27.28;40.35;101254.75;4818470;29;45519;-84
2023/07/17 09:05:10;;;;;;;;;3.67;3.67;;;;;27.19;40.23;101231.47;4801755;29;45824;-85
2023/07/17 09:07:36;;;;;;;;;6.00;3.00;;;;;27.44;39.34;101268.56;4807007;29;45376;-85
2023/07/17 09:10:21;;;;;;;;;6.00;3.67;;;;;27.68;39.08;101261.88;4821714;29;45463;-84
2023/07/17 09:12:50;;;;;;;;;2.00;2.00;;;;;27.69;38.90;101255.47;4826591;29;45489;-85
2023/07/17 09:15:42;;;;;;;;;1.00;0.67;;;;;27.61;39.17;101233.09;4820204;29;45375;-84
2023/07/17 09:18:11;;;;;;;;;5.67;3.67;;;;;27.68;39.06;101240.03;4820290;29;45384;-85
2023/07/17 09:20:36;;;;;;;;;3.33;3.33;;;;;27.64;38.89;101253.91;4822658;29;45666;-83
2023/07/17 09:23:03;;;;;;;;;2.00;2.00;;;;;27.40;37.63;101250.53;4803328;29;45566;-85
2023/07/17 09:25:30;;;;;;;;;2.00;2.00;;;;;27.16;38.06;101245.25;4849410;29;45433;-84
2023/07/17 09:28:29;;;;;;;;;1.33;1.00;;;;;27.10;38.53;101259.19;4860846;29;45246;-87
2023/07/17 09:31:04;;;;;;;;;2.33;2.33;;;;;26.64;38.48;101236.75;4872331;29;45566;-84
2023/07/17 09:40:27;;;;;;;;;2.00;2.00;;;;;27.13;38.48;101254.47;4884677;29;45084;-85
2023/07/17 09:42:55;;;;;;;;;2.33;2.33;;;;;27.23;38.14;101268.63;4875353;29;45428;-83
2023/07/17 09:45:27;;;;;;;;;3.00;2.00;;;;;27.32;37.85;101268.16;4880168;29;44863;-84
2023/07/17 09:48:05;;;;;;;;;2.00;2.00;;;;;27.08;37.22;101253.78;4878865;29;45491;-83
2023/07/17 09:50:31;;;;;;;;;4.33;2.67;;;;;26.94;37.40;101243.53;4881290;29;46459;-84
2023/07/17 09:53:01;;;;;;;;;3.00;3.00;;;;;27.09;38.00;101263.78;4896820;28;44974;-83
2023/07/17 09:55:42;;;;;;;;;2.00;1.00;;;;;27.02;37.41;101264.13;4865505;29;45161;-85
2023/07/17 09:58:16;;;;;;;;;2.00;1.00;;;;;26.54;37.87;101256.22;4889963;29;45357;-83
2023/07/17 10:01:28;;;;;;;;;;;;;;;;;;;;;
2023/07/17 10:04:22;;;;;;;;;2.33;2.33;;;;;25.95;38.64;101270.59;4861864;29;72425;-84
2023/07/17 10:07:02;;;;;;;;;1.67;1.67;;;;;25.86;39.00;101254.59;4878068;29;44849;-84
2023/07/17 10:09:48;;;;;;;;;1.67;1.67;;;;;26.20;38.94;101273.19;4869880;29;44875;-83
2023/07/17 10:12:16;;;;;;;;;1.00;1.00;;;;;26.20;38.66;101255.91;4876697;29;45413;-83
2023/07/17 10:14:48;;;;;;;;;2.67;1.67;;;;;26.37;38.48;101258.81;4877784;29;45568;-84
2023/07/17 10:17:57;;;;;;;;;2.00;2.00;;;;;26.43;37.90;101269.44;4895076;29;45319;-85
2023/07/17 10:23:48;;;;;;;;;4.00;3.00;;;;;26.36;38.67;101262.50;4879630;29;44911;-85
2023/07/17 10:26:37;;;;;;;;;0.33;0.33;;;;;26.44;38.26;101254.88;4878740;29;45491;-84
2023/07/17 10:29:05;;;;;;;;;1.33;1.33;;;;;26.33;37.80;101235.34;4874025;29;45425;-84
2023/07/17 10:31:32;;;;;;;;;2.33;2.00;;;;;26.29;38.26;101260.97;4880741;29;45469;-83
2023/07/17 10:34:01;;;;;;;;;3.33;2.67;;;;;26.43;38.03;101254.94;4879339;29;45449;-85
2023/07/17 10:37:20;;;;;;;;;1.67;1.00;;;;;26.55;37.09;101268.91;4884436;29;45360;-85
2023/07/17 10:39:47;;;;;;;;;2.00;2.00;;;;;26.14;37.64;101246.19;4815049;29;45854;-85
2023/07/17 10:42:21;;;;;;;;;0.00;0.00;;;;;26.20;37.91;101255.91;4843888;29;45460;-85
2023/07/17 10:44:51;;;;;;;;;2.33;2.33;;;;;26.26;38.13;101262.00;4823395;29;46292;-86
2023/07/17 10:47:16;;;;;;;;;2.00;2.00;;;;;26.35;38.34;101264.31;4808607;29;44832;-85
2023/07/17 10:49:56;;;;;;;;;2.00;2.00;;;;;26.65;37.66;101263.97;4825427;29;44853;-84
2023/07/17 10:52:31;;;;;;;;;0.33;0.33;;;;;26.66;37.87;101248.47;4841301;29;45750;-85
2023/07/17 10:55:04;;;;;;;;;0.00;0.00;;;;;26.85;36.38;101271.25;4856026;29;46493;-85
2023/07/17 10:57:58;;;;;;;;;;;;;;;;;;;;;
2023/07/17 11:00:28;;;;;;;;;1.33;1.33;;;;;26.63;36.60;101275.91;4862450;29;68979;-84
2023/07/17 11:03:26;;;;;;;;;2.33;1.00;;;;;26.62;37.03;101252.28;4845635;29;44922;-86
2023/07/17 11:06:00;;;;;;;;;2.00;2.00;;;;;26.77;36.13;101272.56;4844750;29;45461;-85
2023/07/17 11:08:36;;;;;;;;;1.00;1.00;;;;;26.69;35.64;101237.44;4839490;29;45609;-87
2023/07/17 11:11:18;;;;;;;;;3.33;1.00;;;;;27.02;35.76;101272.31;4846459;29;45487;-85
2023/07/17 11:13:51;;;;;;;;;1.00;1.00;;;;;27.13;35.95;101270.84;4868318;29;45466;-85
2023/07/17 11:17:11;;;;;;;;;;;;;;;;;;;;;
2023/07/17 11:20:39;;;;;;;;;;;;;;;;;;;;;
2023/07/17 11:23:15;;;;;;;;;1.75;1.75;;;;;27.50;34.16;101274.59;4748254;29;67287;-84
2023/07/17 11:26:05;;;;;;;;;;;;;;;;;;;;;
2023/07/17 11:35:52;;;;;;;;;2.00;2.00;;;;;27.42;34.72;101260.41;4799096;29;45048;-85
2023/07/17 11:38:24;;;;;;;;;1.00;1.00;;;;;27.50;35.17;101263.66;4783167;29;45436;-86
2023/07/17 11:41:02;;;;;;;;;1.67;1.00;;;;;27.61;34.94;101254.97;4782021;29;45510;-84
2023/07/17 11:58:38;;;;;;;;;5.67;5.67;;;;;27.82;34.17;101274.00;5377670;23;46584;-84
2023/07/17 12:01:44;;;;;;;;;1.33;1.33;;;;;27.87;33.15;101272.81;4874539;29;45355;-86
2023/07/17 12:05:01;;;;;;;;;2.50;1.25;;;;;27.61;33.79;101279.56;4873741;29;45043;-85
2023/07/17 12:07:46;;;;;;;;;3.33;1.67;;;;;27.43;34.53;101272.22;4791797;29;45565;-84
2023/07/17 12:10:14;;;;;;;;;1.67;1.00;;;;;27.34;34.29;101270.84;4817716;29;44877;-87
2023/07/17 12:12:43;;;;;;;;;1.00;1.00;;;;;27.19;34.40;101272.41;4826925;29;44855;-85
2023/07/17 12:15:36;;;;;;;;;2.00;2.00;;;;;27.03;34.95;101264.06;4827626;29;45632;-84
2023/07/17 12:25:02;;;;;;;;;1.75;1.00;;;;;26.98;34.61;101247.00;4816689;29;45702;-85
2023/07/17 12:27:31;;;;;;;;;0.33;0.33;;;;;26.94;34.79;101251.72;4815646;29;45669;-84
2023/07/17 12:29:57;;;;;;;;;2.00;0.67;;;;;27.06;34.32;101268.47;4816308;29;45462;-84
2023/07/17 12:32:33;;;;;;;;;0.00;0.00;;;;;27.28;34.24;101236.50;4815531;29;45523;-83
2023/07/17 12:35:06;;;;;;;;;4.00;2.67;;;;;27.53;33.88;101238.94;4801620;29;45309;-84
2023/07/17 12:37:32;;;;;;;;;1.33;1.33;;;;;27.54;33.72;101256.22;4849522;29;46178;-85
2023/07/17 12:39:58;;;;;;;;;0.33;0.33;;;;;27.54;34.33;101257.09;4853123;29;45381;-84
2023/07/17 12:42:27;;;;;;;;;1.00;1.00;;;;;27.80;34.02;101244.00;4854587;29;44778;-86
2023/07/17 12:48:23;;;;;;;;;0.33;0.33;;;;;28.18;33.05;101249.41;4855851;29;45395;-85
2023/07/17 12:50:52;;;;;;;;;1.33;0.00;;;;;28.37;33.14;101249.31;4852606;29;45878;-85
2023/07/17 12:53:17;;;;;;;;;0.00;0.00;;;;;28.36;32.37;101244.84;4858234;29;45671;-85
2023/07/17 12:55:42;;;;;;;;;1.00;1.00;;;;;28.20;31.97;101246.56;4856845;29;45467;-85